sensor_id;sensor_type;location;lat;lon;timestamp;P1;durP1;ratioP1;P2;durP2;ratioP2
40046;SDS011;31510;48.122;11.576;2022-07-29T00:00:56;1.95;;;1.10;;
40046;SDS011;31510;48.122;11.576;2022-07-29T00:03:21;1.37;;;1.23;;
40046;SDS011;31510;48.122;11.576;2022-07-29T00:05:46;3.03;;;1.38;;
40046;SDS011;31510;48.122;11.576;2022-07-29T00:08:11;1.15;;;1.05;;
40046;SDS011;31510;48.122;11.576;2022-07-29T00:10:37;1.63;;;1.38;;
40046;SDS011;31510;48.122;11.576;2022-07-29T00:13:02;2.35;;;1.20;;
40046;SDS011;31510;48.122;11.576;2022-07-29T00:15:27;1.45;;;1.35;;
40046;SDS011;31510;48.122;11.576;2022-07-29T00:17:53;1.55;;;1.30;;
40046;SDS011;31510;48.122;11.576;2022-07-29T00:20:18;1.50;;;1.40;;
40046;SDS011;31510;48.122;11.576;2022-07-29T00:22:44;2.22;;;1.50;;
40046;SDS011;31510;48.122;11.576;2022-07-29T00:25:09;2.17;;;1.97;;
40046;SDS011;31510;48.122;11.576;2022-07-29T00:27:35;1.52;;;1.42;;
40046;SDS011;31510;48.122;11.576;2022-07-29T00:30:01;2.13;;;1.88;;
40046;SDS011;31510;48.122;11.576;2022-07-29T00:32:27;2.60;;;2.40;;
40046;SDS011;31510;48.122;11.576;2022-07-29T00:34:52;2.58;;;1.90;;
40046;SDS011;31510;48.122;11.576;2022-07-29T00:37:36;3.67;;;1.95;;
40046;SDS011;31510;48.122;11.576;2022-07-29T00:40:02;2.13;;;1.87;;
40046;SDS011;31510;48.122;11.576;2022-07-29T00:42:27;3.40;;;1.65;;
40046;SDS011;31510;48.122;11.576;2022-07-29T00:44:53;1.55;;;1.38;;
40046;SDS011;31510;48.122;11.576;2022-07-29T00:47:18;1.70;;;1.40;;
40046;SDS011;31510;48.122;11.576;2022-07-29T00:49:43;1.83;;;1.30;;
40046;SDS011;31510;48.122;11.576;2022-07-29T00:52:10;3.60;;;1.48;;
40046;SDS011;31510;48.122;11.576;2022-07-29T00:54:36;1.42;;;1.20;;
40046;SDS011;31510;48.122;11.576;2022-07-29T00:57:03;1.33;;;1.10;;
40046;SDS011;31510;48.122;11.576;2022-07-29T00:59:30;3.03;;;1.48;;
40046;SDS011;31510;48.122;11.576;2022-07-29T01:01:56;2.63;;;1.40;;
40046;SDS011;31510;48.122;11.576;2022-07-29T01:04:21;1.83;;;1.58;;
40046;SDS011;31510;48.122;11.576;2022-07-29T01:06:47;1.30;;;1.20;;
40046;SDS011;31510;48.122;11.576;2022-07-29T01:09:14;1.85;;;1.30;;
40046;SDS011;31510;48.122;11.576;2022-07-29T01:11:41;1.23;;;1.13;;
40046;SDS011;31510;48.122;11.576;2022-07-29T01:14:08;2.60;;;1.58;;
40046;SDS011;31510;48.122;11.576;2022-07-29T01:16:41;2.28;;;1.25;;
40046;SDS011;31510;48.122;11.576;2022-07-29T01:22:17;1.35;;;0.95;;
40046;SDS011;31510;48.122;11.576;2022-07-29T01:25:02;1.42;;;0.93;;
40046;SDS011;31510;48.122;11.576;2022-07-29T01:30:26;2.08;;;1.55;;
40046;SDS011;31510;48.122;11.576;2022-07-29T01:32:55;2.60;;;0.98;;
40046;SDS011;31510;48.122;11.576;2022-07-29T01:35:26;1.13;;;1.00;;
40046;SDS011;31510;48.122;11.576;2022-07-29T01:41:13;2.97;;;1.00;;
40046;SDS011;31510;48.122;11.576;2022-07-29T01:46:08;1.93;;;1.03;;
40046;SDS011;31510;48.122;11.576;2022-07-29T01:48:40;1.20;;;1.00;;
40046;SDS011;31510;48.122;11.576;2022-07-29T01:51:12;1.02;;;0.80;;
40046;SDS011;31510;48.122;11.576;2022-07-29T01:53:50;1.25;;;0.90;;
40046;SDS011;31510;48.122;11.576;2022-07-29T01:56:20;0.80;;;0.60;;
40046;SDS011;31510;48.122;11.576;2022-07-29T01:58:47;0.77;;;0.77;;
40046;SDS011;31510;48.122;11.576;2022-07-29T02:01:14;0.90;;;0.73;;
40046;SDS011;31510;48.122;11.576;2022-07-29T02:03:42;1.40;;;0.60;;
40046;SDS011;31510;48.122;11.576;2022-07-29T02:06:09;1.10;;;0.82;;
40046;SDS011;31510;48.122;11.576;2022-07-29T02:08:36;0.93;;;0.80;;
40046;SDS011;31510;48.122;11.576;2022-07-29T02:11:03;1.60;;;1.00;;
40046;SDS011;31510;48.122;11.576;2022-07-29T02:13:30;1.05;;;0.93;;
40046;SDS011;31510;48.122;11.576;2022-07-29T02:15:57;1.10;;;0.80;;
40046;SDS011;31510;48.122;11.576;2022-07-29T02:18:24;0.82;;;0.60;;
40046;SDS011;31510;48.122;11.576;2022-07-29T02:20:53;1.77;;;0.98;;
40046;SDS011;31510;48.122;11.576;2022-07-29T02:23:21;1.63;;;0.95;;
40046;SDS011;31510;48.122;11.576;2022-07-29T02:25:49;1.52;;;0.80;;
40046;SDS011;31510;48.122;11.576;2022-07-29T02:28:17;2.70;;;1.08;;
40046;SDS011;31510;48.122;11.576;2022-07-29T02:30:45;1.23;;;1.10;;
40046;SDS011;31510;48.122;11.576;2022-07-29T02:33:12;2.35;;;0.82;;
40046;SDS011;31510;48.122;11.576;2022-07-29T02:35:38;0.85;;;0.80;;
40046;SDS011;31510;48.122;11.576;2022-07-29T02:38:06;1.23;;;0.93;;
40046;SDS011;31510;48.122;11.576;2022-07-29T02:40:52;1.20;;;0.80;;
40046;SDS011;31510;48.122;11.576;2022-07-29T02:43:19;0.80;;;0.80;;
40046;SDS011;31510;48.122;11.576;2022-07-29T02:45:46;1.13;;;1.02;;
40046;SDS011;31510;48.122;11.576;2022-07-29T02:48:15;1.55;;;1.05;;
40046;SDS011;31510;48.122;11.576;2022-07-29T02:50:44;1.17;;;0.80;;
40046;SDS011;31510;48.122;11.576;2022-07-29T02:53:20;1.45;;;0.95;;
40046;SDS011;31510;48.122;11.576;2022-07-29T02:55:55;0.85;;;0.70;;
40046;SDS011;31510;48.122;11.576;2022-07-29T02:58:41;1.83;;;0.80;;
40046;SDS011;31510;48.122;11.576;2022-07-29T03:01:14;1.55;;;0.90;;
40046;SDS011;31510;48.122;11.576;2022-07-29T03:03:42;2.40;;;0.88;;
40046;SDS011;31510;48.122;11.576;2022-07-29T03:06:10;1.45;;;0.80;;
40046;SDS011;31510;48.122;11.576;2022-07-29T03:08:38;1.05;;;0.75;;
40046;SDS011;31510;48.122;11.576;2022-07-29T03:11:04;1.30;;;0.90;;
40046;SDS011;31510;48.122;11.576;2022-07-29T03:13:30;1.70;;;0.95;;
40046;SDS011;31510;48.122;11.576;2022-07-29T03:15:55;1.23;;;0.88;;
40046;SDS011;31510;48.122;11.576;2022-07-29T03:18:22;2.20;;;0.90;;
40046;SDS011;31510;48.122;11.576;2022-07-29T03:20:48;1.33;;;0.90;;
40046;SDS011;31510;48.122;11.576;2022-07-29T03:23:18;0.93;;;0.77;;
40046;SDS011;31510;48.122;11.576;2022-07-29T03:25:44;2.53;;;1.20;;
40046;SDS011;31510;48.122;11.576;2022-07-29T03:28:10;1.30;;;1.00;;
40046;SDS011;31510;48.122;11.576;2022-07-29T03:30:35;1.58;;;0.98;;
40046;SDS011;31510;48.122;11.576;2022-07-29T03:33:00;1.30;;;1.10;;
40046;SDS011;31510;48.122;11.576;2022-07-29T03:35:26;1.50;;;0.95;;
40046;SDS011;31510;48.122;11.576;2022-07-29T03:37:51;2.10;;;1.35;;
40046;SDS011;31510;48.122;11.576;2022-07-29T03:40:21;2.17;;;1.70;;
40046;SDS011;31510;48.122;11.576;2022-07-29T03:42:50;1.45;;;1.35;;
40046;SDS011;31510;48.122;11.576;2022-07-29T03:45:18;1.40;;;1.30;;
40046;SDS011;31510;48.122;11.576;2022-07-29T03:47:48;1.92;;;1.70;;
40046;SDS011;31510;48.122;11.576;2022-07-29T03:50:18;2.70;;;1.10;;
40046;SDS011;31510;48.122;11.576;2022-07-29T03:52:45;1.42;;;1.27;;
40046;SDS011;31510;48.122;11.576;2022-07-29T03:55:11;2.05;;;1.42;;
40046;SDS011;31510;48.122;11.576;2022-07-29T03:57:36;2.08;;;1.08;;
40046;SDS011;31510;48.122;11.576;2022-07-29T04:00:04;1.50;;;1.38;;
40046;SDS011;31510;48.122;11.576;2022-07-29T04:02:31;1.20;;;1.00;;
40046;SDS011;31510;48.122;11.576;2022-07-29T04:04:57;1.55;;;1.10;;
40046;SDS011;31510;48.122;11.576;2022-07-29T04:07:23;1.48;;;1.05;;
40046;SDS011;31510;48.122;11.576;2022-07-29T04:09:48;2.33;;;0.90;;
40046;SDS011;31510;48.122;11.576;2022-07-29T04:12:13;4.70;;;1.23;;
40046;SDS011;31510;48.122;11.576;2022-07-29T04:14:39;1.38;;;0.90;;
40046;SDS011;31510;48.122;11.576;2022-07-29T04:17:04;2.00;;;1.17;;
40046;SDS011;31510;48.122;11.576;2022-07-29T04:19:30;2.35;;;0.93;;
40046;SDS011;31510;48.122;11.576;2022-07-29T04:21:56;1.73;;;1.13;;
40046;SDS011;31510;48.122;11.576;2022-07-29T04:24:23;2.17;;;1.27;;
40046;SDS011;31510;48.122;11.576;2022-07-29T04:26:48;1.83;;;1.30;;
40046;SDS011;31510;48.122;11.576;2022-07-29T04:29:14;2.20;;;1.17;;
40046;SDS011;31510;48.122;11.576;2022-07-29T04:31:39;2.10;;;1.20;;
40046;SDS011;31510;48.122;11.576;2022-07-29T04:34:05;2.25;;;1.13;;
40046;SDS011;31510;48.122;11.576;2022-07-29T04:36:31;1.38;;;1.10;;
40046;SDS011;31510;48.122;11.576;2022-07-29T04:38:56;2.65;;;1.63;;
40046;SDS011;31510;48.122;11.576;2022-07-29T04:41:22;3.78;;;1.67;;
40046;SDS011;31510;48.122;11.576;2022-07-29T04:43:48;2.58;;;1.40;;
40046;SDS011;31510;48.122;11.576;2022-07-29T04:46:13;2.03;;;1.60;;
40046;SDS011;31510;48.122;11.576;2022-07-29T04:48:38;1.20;;;1.10;;
40046;SDS011;31510;48.122;11.576;2022-07-29T04:51:03;3.65;;;1.75;;
40046;SDS011;31510;48.122;11.576;2022-07-29T04:53:29;3.35;;;1.30;;
40046;SDS011;31510;48.122;11.576;2022-07-29T04:55:54;2.33;;;1.20;;
40046;SDS011;31510;48.122;11.576;2022-07-29T04:58:20;3.53;;;1.10;;
40046;SDS011;31510;48.122;11.576;2022-07-29T05:00:45;1.80;;;0.93;;
40046;SDS011;31510;48.122;11.576;2022-07-29T05:03:10;1.67;;;1.25;;
40046;SDS011;31510;48.122;11.576;2022-07-29T05:05:36;1.85;;;1.42;;
40046;SDS011;31510;48.122;11.576;2022-07-29T05:08:01;2.80;;;1.30;;
40046;SDS011;31510;48.122;11.576;2022-07-29T05:10:26;2.05;;;1.52;;
40046;SDS011;31510;48.122;11.576;2022-07-29T05:12:52;1.70;;;1.38;;
40046;SDS011;31510;48.122;11.576;2022-07-29T05:15:17;1.88;;;1.40;;
40046;SDS011;31510;48.122;11.576;2022-07-29T05:17:43;1.83;;;1.23;;
40046;SDS011;31510;48.122;11.576;2022-07-29T05:20:09;2.65;;;1.38;;
40046;SDS011;31510;48.122;11.576;2022-07-29T05:22:34;2.78;;;1.33;;
40046;SDS011;31510;48.122;11.576;2022-07-29T05:25:00;2.13;;;1.38;;
40046;SDS011;31510;48.122;11.576;2022-07-29T05:27:25;3.70;;;1.70;;
40046;SDS011;31510;48.122;11.576;2022-07-29T05:29:50;11.05;;;1.70;;
40046;SDS011;31510;48.122;11.576;2022-07-29T05:32:16;2.70;;;1.40;;
40046;SDS011;31510;48.122;11.576;2022-07-29T05:34:41;2.67;;;2.20;;
40046;SDS011;31510;48.122;11.576;2022-07-29T05:37:07;2.17;;;1.60;;
40046;SDS011;31510;48.122;11.576;2022-07-29T05:39:32;2.25;;;1.35;;
40046;SDS011;31510;48.122;11.576;2022-07-29T05:41:57;4.40;;;1.52;;
40046;SDS011;31510;48.122;11.576;2022-07-29T05:44:23;2.10;;;1.80;;
40046;SDS011;31510;48.122;11.576;2022-07-29T05:46:48;2.65;;;1.50;;
40046;SDS011;31510;48.122;11.576;2022-07-29T05:49:14;1.88;;;1.55;;
40046;SDS011;31510;48.122;11.576;2022-07-29T05:51:39;4.13;;;1.63;;
40046;SDS011;31510;48.122;11.576;2022-07-29T05:54:05;3.17;;;1.60;;
40046;SDS011;31510;48.122;11.576;2022-07-29T05:56:30;4.50;;;1.90;;
40046;SDS011;31510;48.122;11.576;2022-07-29T05:58:55;4.43;;;1.98;;
40046;SDS011;31510;48.122;11.576;2022-07-29T06:01:21;3.13;;;2.10;;
40046;SDS011;31510;48.122;11.576;2022-07-29T06:03:46;4.70;;;1.75;;
40046;SDS011;31510;48.122;11.576;2022-07-29T06:06:11;4.72;;;2.40;;
40046;SDS011;31510;48.122;11.576;2022-07-29T06:08:37;4.72;;;1.90;;
40046;SDS011;31510;48.122;11.576;2022-07-29T06:11:02;3.53;;;1.67;;
40046;SDS011;31510;48.122;11.576;2022-07-29T06:13:28;2.17;;;1.30;;
40046;SDS011;31510;48.122;11.576;2022-07-29T06:15:54;2.40;;;1.90;;
40046;SDS011;31510;48.122;11.576;2022-07-29T06:18:20;5.60;;;1.70;;
40046;SDS011;31510;48.122;11.576;2022-07-29T06:20:48;3.08;;;1.60;;
40046;SDS011;31510;48.122;11.576;2022-07-29T06:23:14;2.35;;;1.45;;
40046;SDS011;31510;48.122;11.576;2022-07-29T06:25:40;6.33;;;1.90;;
40046;SDS011;31510;48.122;11.576;2022-07-29T06:28:05;2.78;;;1.85;;
40046;SDS011;31510;48.122;11.576;2022-07-29T06:30:31;4.35;;;1.77;;
40046;SDS011;31510;48.122;11.576;2022-07-29T06:32:56;2.90;;;1.90;;
40046;SDS011;31510;48.122;11.576;2022-07-29T06:35:22;3.25;;;1.70;;
40046;SDS011;31510;48.122;11.576;2022-07-29T06:37:47;2.38;;;1.60;;
40046;SDS011;31510;48.122;11.576;2022-07-29T06:40:12;3.60;;;1.88;;
40046;SDS011;31510;48.122;11.576;2022-07-29T06:42:56;2.60;;;1.75;;
40046;SDS011;31510;48.122;11.576;2022-07-29T06:45:21;3.88;;;1.52;;
40046;SDS011;31510;48.122;11.576;2022-07-29T06:47:47;2.38;;;1.38;;
40046;SDS011;31510;48.122;11.576;2022-07-29T06:50:13;2.90;;;1.60;;
40046;SDS011;31510;48.122;11.576;2022-07-29T06:52:39;2.08;;;1.88;;
40046;SDS011;31510;48.122;11.576;2022-07-29T06:55:05;1.58;;;1.48;;
40046;SDS011;31510;48.122;11.576;2022-07-29T06:57:30;1.85;;;1.60;;
40046;SDS011;31510;48.122;11.576;2022-07-29T06:59:56;1.98;;;1.70;;
40046;SDS011;31510;48.122;11.576;2022-07-29T07:02:21;1.67;;;1.50;;
40046;SDS011;31510;48.122;11.576;2022-07-29T07:04:47;2.85;;;1.90;;
40046;SDS011;31510;48.122;11.576;2022-07-29T07:07:12;2.67;;;1.58;;
40046;SDS011;31510;48.122;11.576;2022-07-29T07:09:38;6.88;;;2.00;;
40046;SDS011;31510;48.122;11.576;2022-07-29T07:12:03;3.63;;;1.77;;
40046;SDS011;31510;48.122;11.576;2022-07-29T07:14:28;3.15;;;1.77;;
40046;SDS011;31510;48.122;11.576;2022-07-29T07:16:54;2.05;;;1.60;;
40046;SDS011;31510;48.122;11.576;2022-07-29T07:19:19;3.05;;;1.60;;
40046;SDS011;31510;48.122;11.576;2022-07-29T07:21:45;5.07;;;1.70;;
40046;SDS011;31510;48.122;11.576;2022-07-29T07:24:10;4.05;;;1.40;;
40046;SDS011;31510;48.122;11.576;2022-07-29T07:26:35;3.20;;;1.50;;
40046;SDS011;31510;48.122;11.576;2022-07-29T07:29:01;2.20;;;1.60;;
40046;SDS011;31510;48.122;11.576;2022-07-29T07:31:26;4.18;;;1.80;;
40046;SDS011;31510;48.122;11.576;2022-07-29T07:33:51;2.33;;;1.60;;
40046;SDS011;31510;48.122;11.576;2022-07-29T07:36:18;1.50;;;1.40;;
40046;SDS011;31510;48.122;11.576;2022-07-29T07:38:43;1.88;;;1.70;;
40046;SDS011;31510;48.122;11.576;2022-07-29T07:41:09;2.10;;;1.60;;
40046;SDS011;31510;48.122;11.576;2022-07-29T07:43:34;2.45;;;1.80;;
40046;SDS011;31510;48.122;11.576;2022-07-29T07:45:59;2.85;;;1.42;;
40046;SDS011;31510;48.122;11.576;2022-07-29T07:48:25;3.80;;;1.77;;
40046;SDS011;31510;48.122;11.576;2022-07-29T07:50:50;2.47;;;1.45;;
40046;SDS011;31510;48.122;11.576;2022-07-29T07:53:16;2.17;;;1.40;;
40046;SDS011;31510;48.122;11.576;2022-07-29T07:55:41;2.38;;;1.33;;
40046;SDS011;31510;48.122;11.576;2022-07-29T07:58:08;1.83;;;1.42;;
40046;SDS011;31510;48.122;11.576;2022-07-29T08:00:33;1.48;;;1.30;;
40046;SDS011;31510;48.122;11.576;2022-07-29T08:02:59;2.65;;;1.38;;
40046;SDS011;31510;48.122;11.576;2022-07-29T08:05:24;1.73;;;1.27;;
40046;SDS011;31510;48.122;11.576;2022-07-29T08:07:49;3.35;;;1.30;;
40046;SDS011;31510;48.122;11.576;2022-07-29T08:10:15;1.40;;;1.30;;
40046;SDS011;31510;48.122;11.576;2022-07-29T08:13:01;5.63;;;1.40;;
40046;SDS011;31510;48.122;11.576;2022-07-29T08:15:28;1.67;;;1.08;;
40046;SDS011;31510;48.122;11.576;2022-07-29T08:17:53;5.07;;;1.40;;
40046;SDS011;31510;48.122;11.576;2022-07-29T08:20:19;1.60;;;1.30;;
40046;SDS011;31510;48.122;11.576;2022-07-29T08:22:44;1.40;;;0.95;;
40046;SDS011;31510;48.122;11.576;2022-07-29T08:25:09;2.30;;;1.30;;
40046;SDS011;31510;48.122;11.576;2022-07-29T08:27:35;2.35;;;1.42;;
40046;SDS011;31510;48.122;11.576;2022-07-29T08:30:00;8.07;;;1.77;;
40046;SDS011;31510;48.122;11.576;2022-07-29T08:32:25;2.30;;;1.57;;
40046;SDS011;31510;48.122;11.576;2022-07-29T08:34:51;4.63;;;1.45;;
40046;SDS011;31510;48.122;11.576;2022-07-29T08:37:16;2.95;;;1.60;;
40046;SDS011;31510;48.122;11.576;2022-07-29T08:39:41;2.25;;;1.33;;
40046;SDS011;31510;48.122;11.576;2022-07-29T08:42:07;1.57;;;1.47;;
40046;SDS011;31510;48.122;11.576;2022-07-29T08:44:32;1.55;;;1.33;;
40046;SDS011;31510;48.122;11.576;2022-07-29T08:46:58;3.55;;;2.40;;
40046;SDS011;31510;48.122;11.576;2022-07-29T08:49:23;2.45;;;1.55;;
40046;SDS011;31510;48.122;11.576;2022-07-29T08:51:49;1.73;;;1.52;;
40046;SDS011;31510;48.122;11.576;2022-07-29T08:54:16;2.00;;;1.77;;
40046;SDS011;31510;48.122;11.576;2022-07-29T08:56:42;1.98;;;1.77;;
40046;SDS011;31510;48.122;11.576;2022-07-29T08:59:08;4.68;;;2.05;;
40046;SDS011;31510;48.122;11.576;2022-07-29T09:01:35;4.32;;;1.92;;
40046;SDS011;31510;48.122;11.576;2022-07-29T09:04:03;4.72;;;1.95;;
40046;SDS011;31510;48.122;11.576;2022-07-29T09:06:31;2.17;;;1.63;;
40046;SDS011;31510;48.122;11.576;2022-07-29T09:08:59;3.30;;;1.98;;
40046;SDS011;31510;48.122;11.576;2022-07-29T09:11:25;5.57;;;2.30;;
40046;SDS011;31510;48.122;11.576;2022-07-29T09:13:51;2.08;;;1.70;;
40046;SDS011;31510;48.122;11.576;2022-07-29T09:16:17;2.20;;;2.05;;
40046;SDS011;31510;48.122;11.576;2022-07-29T09:18:43;3.17;;;2.50;;
40046;SDS011;31510;48.122;11.576;2022-07-29T09:21:11;3.13;;;1.70;;
40046;SDS011;31510;48.122;11.576;2022-07-29T09:26:44;3.45;;;2.17;;
40046;SDS011;31510;48.122;11.576;2022-07-29T09:29:11;2.58;;;2.35;;
40046;SDS011;31510;48.122;11.576;2022-07-29T09:31:39;4.55;;;3.38;;
40046;SDS011;31510;48.122;11.576;2022-07-29T09:34:07;2.75;;;2.10;;
40046;SDS011;31510;48.122;11.576;2022-07-29T09:36:39;2.05;;;1.85;;
40046;SDS011;31510;48.122;11.576;2022-07-29T09:39:05;4.43;;;2.20;;
40046;SDS011;31510;48.122;11.576;2022-07-29T09:41:43;3.08;;;2.50;;
40046;SDS011;31510;48.122;11.576;2022-07-29T09:44:17;2.92;;;2.40;;
40046;SDS011;31510;48.122;11.576;2022-07-29T09:46:59;4.65;;;2.53;;
40046;SDS011;31510;48.122;11.576;2022-07-29T09:49:31;3.92;;;2.63;;
40046;SDS011;31510;48.122;11.576;2022-07-29T09:52:05;6.85;;;2.53;;
40046;SDS011;31510;48.122;11.576;2022-07-29T09:54:32;3.35;;;3.05;;
40046;SDS011;31510;48.122;11.576;2022-07-29T09:57:02;3.95;;;1.98;;
40046;SDS011;31510;48.122;11.576;2022-07-29T09:59:29;3.65;;;2.15;;
40046;SDS011;31510;48.122;11.576;2022-07-29T10:01:54;7.03;;;2.50;;
40046;SDS011;31510;48.122;11.576;2022-07-29T10:04:20;5.15;;;2.42;;
40046;SDS011;31510;48.122;11.576;2022-07-29T10:06:58;6.43;;;2.95;;
40046;SDS011;31510;48.122;11.576;2022-07-29T10:09:25;3.55;;;2.65;;
40046;SDS011;31510;48.122;11.576;2022-07-29T10:12:07;2.80;;;2.60;;
40046;SDS011;31510;48.122;11.576;2022-07-29T10:14:36;4.90;;;2.53;;
40046;SDS011;31510;48.122;11.576;2022-07-29T10:17:03;3.58;;;3.03;;
40046;SDS011;31510;48.122;11.576;2022-07-29T10:19:30;2.88;;;2.47;;
40046;SDS011;31510;48.122;11.576;2022-07-29T10:22:00;4.18;;;2.92;;
40046;SDS011;31510;48.122;11.576;2022-07-29T10:24:28;3.30;;;2.45;;
40046;SDS011;31510;48.122;11.576;2022-07-29T10:26:57;2.95;;;2.75;;
40046;SDS011;31510;48.122;11.576;2022-07-29T10:29:24;2.60;;;2.30;;
40046;SDS011;31510;48.122;11.576;2022-07-29T10:32:11;3.28;;;2.60;;
40046;SDS011;31510;48.122;11.576;2022-07-29T10:43:36;5.28;;;3.20;;
40046;SDS011;31510;48.122;11.576;2022-07-29T10:46:05;2.92;;;2.70;;
40046;SDS011;31510;48.122;11.576;2022-07-29T10:48:31;5.07;;;2.92;;
40046;SDS011;31510;48.122;11.576;2022-07-29T10:51:00;5.10;;;2.70;;
40046;SDS011;31510;48.122;11.576;2022-07-29T10:53:47;2.60;;;2.35;;
40046;SDS011;31510;48.122;11.576;2022-07-29T10:56:27;5.50;;;2.80;;
40046;SDS011;31510;48.122;11.576;2022-07-29T11:01:46;2.97;;;2.63;;
40046;SDS011;31510;48.122;11.576;2022-07-29T11:04:12;5.95;;;2.83;;
40046;SDS011;31510;48.122;11.576;2022-07-29T11:07:20;3.03;;;2.28;;
40046;SDS011;31510;48.122;11.576;2022-07-29T11:09:29;4.40;;;2.70;;
40046;SDS011;31510;48.122;11.576;2022-07-29T11:11:55;3.35;;;2.30;;
40046;SDS011;31510;48.122;11.576;2022-07-29T11:17:17;2.60;;;2.33;;
40046;SDS011;31510;48.122;11.576;2022-07-29T11:19:43;2.90;;;2.45;;
40046;SDS011;31510;48.122;11.576;2022-07-29T11:22:09;4.30;;;3.00;;
40046;SDS011;31510;48.122;11.576;2022-07-29T11:24:35;3.50;;;2.58;;
40046;SDS011;31510;48.122;11.576;2022-07-29T11:27:14;3.75;;;3.05;;
40046;SDS011;31510;48.122;11.576;2022-07-29T11:29:49;4.28;;;2.92;;
40046;SDS011;31510;48.122;11.576;2022-07-29T11:32:17;4.18;;;2.58;;
40046;SDS011;31510;48.122;11.576;2022-07-29T11:34:44;4.90;;;2.42;;
40046;SDS011;31510;48.122;11.576;2022-07-29T11:39:40;2.88;;;2.50;;
40046;SDS011;31510;48.122;11.576;2022-07-29T11:47:31;3.90;;;2.95;;
40046;SDS011;31510;48.122;11.576;2022-07-29T11:49:58;3.05;;;2.35;;
40046;SDS011;31510;48.122;11.576;2022-07-29T11:52:32;3.17;;;2.60;;
40046;SDS011;31510;48.122;11.576;2022-07-29T11:54:58;3.65;;;2.50;;
40046;SDS011;31510;48.122;11.576;2022-07-29T11:57:28;2.83;;;2.53;;
40046;SDS011;31510;48.122;11.576;2022-07-29T11:59:54;3.03;;;2.58;;
40046;SDS011;31510;48.122;11.576;2022-07-29T12:02:20;4.05;;;3.03;;
40046;SDS011;31510;48.122;11.576;2022-07-29T12:04:52;3.67;;;2.40;;
40046;SDS011;31510;48.122;11.576;2022-07-29T12:07:19;4.03;;;2.35;;
40046;SDS011;31510;48.122;11.576;2022-07-29T12:09:54;3.47;;;2.58;;
40046;SDS011;31510;48.122;11.576;2022-07-29T12:12:19;3.00;;;2.30;;
40046;SDS011;31510;48.122;11.576;2022-07-29T12:14:45;5.00;;;2.35;;
40046;SDS011;31510;48.122;11.576;2022-07-29T12:17:27;3.33;;;2.17;;
40046;SDS011;31510;48.122;11.576;2022-07-29T12:19:53;4.18;;;2.20;;
40046;SDS011;31510;48.122;11.576;2022-07-29T12:22:26;4.50;;;2.55;;
40046;SDS011;31510;48.122;11.576;2022-07-29T12:24:53;5.13;;;2.53;;
40046;SDS011;31510;48.122;11.576;2022-07-29T12:27:19;3.05;;;2.42;;
40046;SDS011;31510;48.122;11.576;2022-07-29T12:29:55;3.05;;;2.25;;
40046;SDS011;31510;48.122;11.576;2022-07-29T12:32:30;4.80;;;2.13;;
40046;SDS011;31510;48.122;11.576;2022-07-29T12:34:56;4.32;;;2.42;;
40046;SDS011;31510;48.122;11.576;2022-07-29T12:37:21;6.35;;;2.63;;
40046;SDS011;31510;48.122;11.576;2022-07-29T12:39:47;4.57;;;2.47;;
40046;SDS011;31510;48.122;11.576;2022-07-29T12:42:13;2.95;;;2.58;;
40046;SDS011;31510;48.122;11.576;2022-07-29T12:44:46;4.18;;;2.50;;
40046;SDS011;31510;48.122;11.576;2022-07-29T12:47:13;4.68;;;2.63;;
40046;SDS011;31510;48.122;11.576;2022-07-29T12:49:39;3.65;;;2.80;;
40046;SDS011;31510;48.122;11.576;2022-07-29T12:55:11;6.00;;;2.53;;
40046;SDS011;31510;48.122;11.576;2022-07-29T12:57:54;4.70;;;2.60;;
40046;SDS011;31510;48.122;11.576;2022-07-29T13:00:23;2.78;;;2.50;;
40046;SDS011;31510;48.122;11.576;2022-07-29T13:02:56;3.58;;;3.03;;
40046;SDS011;31510;48.122;11.576;2022-07-29T13:05:23;4.03;;;2.38;;
40046;SDS011;31510;48.122;11.576;2022-07-29T13:07:49;7.13;;;2.13;;
40046;SDS011;31510;48.122;11.576;2022-07-29T13:10:18;3.80;;;2.30;;
40046;SDS011;31510;48.122;11.576;2022-07-29T13:13:01;2.30;;;1.90;;
40046;SDS011;31510;48.122;11.576;2022-07-29T13:15:27;3.28;;;2.58;;
40046;SDS011;31510;48.122;11.576;2022-07-29T13:17:53;4.03;;;2.53;;
40046;SDS011;31510;48.122;11.576;2022-07-29T13:20:18;3.45;;;2.72;;
40046;SDS011;31510;48.122;11.576;2022-07-29T13:22:49;3.65;;;2.90;;
40046;SDS011;31510;48.122;11.576;2022-07-29T13:25:15;6.38;;;2.40;;
40046;SDS011;31510;48.122;11.576;2022-07-29T13:27:49;3.10;;;2.42;;
40046;SDS011;31510;48.122;11.576;2022-07-29T13:30:14;3.72;;;2.80;;
40046;SDS011;31510;48.122;11.576;2022-07-29T13:32:40;3.67;;;3.27;;
40046;SDS011;31510;48.122;11.576;2022-07-29T13:35:06;4.20;;;2.58;;
40046;SDS011;31510;48.122;11.576;2022-07-29T13:37:33;5.38;;;2.65;;
40046;SDS011;31510;48.122;11.576;2022-07-29T13:39:59;5.10;;;2.58;;
40046;SDS011;31510;48.122;11.576;2022-07-29T13:42:27;7.68;;;2.83;;
40046;SDS011;31510;48.122;11.576;2022-07-29T13:44:53;6.05;;;2.92;;
40046;SDS011;31510;48.122;11.576;2022-07-29T13:47:19;7.78;;;2.55;;
40046;SDS011;31510;48.122;11.576;2022-07-29T13:49:44;5.65;;;2.47;;
40046;SDS011;31510;48.122;11.576;2022-07-29T13:52:10;4.35;;;2.50;;
40046;SDS011;31510;48.122;11.576;2022-07-29T13:54:35;4.63;;;3.25;;
40046;SDS011;31510;48.122;11.576;2022-07-29T13:57:02;3.67;;;2.92;;
40046;SDS011;31510;48.122;11.576;2022-07-29T13:59:28;4.53;;;3.08;;
40046;SDS011;31510;48.122;11.576;2022-07-29T14:01:53;3.50;;;2.80;;
40046;SDS011;31510;48.122;11.576;2022-07-29T14:04:18;4.03;;;2.53;;
40046;SDS011;31510;48.122;11.576;2022-07-29T14:06:44;3.50;;;2.50;;
40046;SDS011;31510;48.122;11.576;2022-07-29T14:09:09;3.63;;;3.07;;
40046;SDS011;31510;48.122;11.576;2022-07-29T14:11:34;4.72;;;2.72;;
40046;SDS011;31510;48.122;11.576;2022-07-29T14:14:00;5.57;;;2.70;;
40046;SDS011;31510;48.122;11.576;2022-07-29T14:16:26;2.70;;;2.50;;
40046;SDS011;31510;48.122;11.576;2022-07-29T14:18:51;2.70;;;2.30;;
40046;SDS011;31510;48.122;11.576;2022-07-29T14:21:16;6.87;;;2.37;;
40046;SDS011;31510;48.122;11.576;2022-07-29T14:23:42;3.67;;;2.38;;
40046;SDS011;31510;48.122;11.576;2022-07-29T14:26:07;4.63;;;2.70;;
40046;SDS011;31510;48.122;11.576;2022-07-29T14:28:32;2.20;;;2.00;;
40046;SDS011;31510;48.122;11.576;2022-07-29T14:30:58;3.07;;;2.50;;
40046;SDS011;31510;48.122;11.576;2022-07-29T14:33:23;2.13;;;1.90;;
40046;SDS011;31510;48.122;11.576;2022-07-29T14:35:48;4.80;;;2.93;;
40046;SDS011;31510;48.122;11.576;2022-07-29T14:38:14;4.65;;;2.13;;
40046;SDS011;31510;48.122;11.576;2022-07-29T14:40:39;2.47;;;2.27;;
40046;SDS011;31510;48.122;11.576;2022-07-29T14:43:04;5.65;;;2.40;;
40046;SDS011;31510;48.122;11.576;2022-07-29T14:45:30;3.13;;;2.22;;
40046;SDS011;31510;48.122;11.576;2022-07-29T14:47:56;3.25;;;2.67;;
40046;SDS011;31510;48.122;11.576;2022-07-29T14:50:21;3.70;;;2.75;;
40046;SDS011;31510;48.122;11.576;2022-07-29T14:52:47;6.15;;;2.22;;
40046;SDS011;31510;48.122;11.576;2022-07-29T14:55:12;3.67;;;2.50;;
40046;SDS011;31510;48.122;11.576;2022-07-29T14:57:37;6.10;;;2.45;;
40046;SDS011;31510;48.122;11.576;2022-07-29T15:00:03;4.40;;;3.05;;
40046;SDS011;31510;48.122;11.576;2022-07-29T15:02:31;3.40;;;2.45;;
40046;SDS011;31510;48.122;11.576;2022-07-29T15:04:56;2.93;;;2.43;;
40046;SDS011;31510;48.122;11.576;2022-07-29T15:07:22;2.42;;;2.20;;
40046;SDS011;31510;48.122;11.576;2022-07-29T15:09:47;4.82;;;3.10;;
40046;SDS011;31510;48.122;11.576;2022-07-29T15:12:12;4.85;;;3.45;;
40046;SDS011;31510;48.122;11.576;2022-07-29T15:14:38;4.15;;;2.60;;